PWSweather.com
Personal Weather Stations
Station Observations
TARRYHILL
Tarrytown, NY 10591

Tarrytown, NY 10591

Lat: 41.05185, Lon: -73.85296

Elevation: 341

Station Type: Davis Vantage Vue

Latest ConditionsUpdated 8:20:15 AM EDT Monday, Jul 28, 2014
Currently Today's Max Today's Min Today's Average
Temperature 70.0°F21.1°C 78.0°F25.6°C 68.5°F20.3°C 72.0°F22.2°C
Dew Point 67.6°F19.8°C 72.6°F22.6°C 66.3°F19.1°C 69.6°F20.9°C
Winds 2.8 mph SSW4.5 kmh SSW 5.9 mph SW9.5 kmh SW - 1.4 mph 2.3 kmh
Wind Gusts 4.0 mph6.4 kmh 7.0 mph11.3 kmh - -
Humidity 92% 96% 82% 92%
Pressure 29.56 in1001.0 mb 29.66 in1004.4 mb 29.54 in1000.3 mb -
Precipitation - 0.19 in4.8 mm - -
Hour Temp Dew Point Humidity Winds Wind Gusts Pressure Precip Precip Rate Daily Precip Total
08:20 AM 70.0°F21.1°C 67.6°F19.8°C 92% 2.8 mph SSW4.5 kmh SSW 4.0 mph6.4 kmh 29.56 in1001.0 mb 0.00 in0.0 mm 0.00 in/hr0.0 mm/hr 0.19 in4.8 mm
08:10 AM 69.9°F21.1°C 67.8°F19.9°C 93% 1.1 mph S1.8 kmh S 4.0 mph6.4 kmh 29.56 in1001.0 mb 0.00 in0.0 mm 0.00 in/hr0.0 mm/hr 0.19 in4.8 mm
08:00 AM 69.5°F20.8°C 67.4°F19.7°C 93% 3.5 mph SW5.6 kmh SW 6.0 mph9.7 kmh 29.56 in1001.0 mb 0.00 in0.0 mm 0.00 in/hr0.0 mm/hr 0.19 in4.8 mm
07:50 AM 69.2°F20.7°C 67.1°F19.5°C 93% 1.9 mph SW3.1 kmh SW 3.0 mph4.8 kmh 29.56 in1001.0 mb 0.00 in0.0 mm 0.00 in/hr0.0 mm/hr 0.19 in4.8 mm
07:40 AM 69.0°F20.6°C 67.2°F19.6°C 94% 2.4 mph SSW3.9 kmh SSW 4.0 mph6.4 kmh 29.56 in1001.0 mb 0.00 in0.0 mm 0.00 in/hr0.0 mm/hr 0.19 in4.8 mm
07:30 AM 69.0°F20.6°C 66.9°F19.4°C 93% 2.0 mph SW3.2 kmh SW 3.0 mph4.8 kmh 29.56 in1001.0 mb 0.00 in0.0 mm 0.00 in/hr0.0 mm/hr 0.19 in4.8 mm
07:20 AM 69.0°F20.6°C 66.9°F19.4°C 93% 1.8 mph SSE2.9 kmh SSE 3.0 mph4.8 kmh 29.56 in1001.0 mb 0.00 in0.0 mm 0.00 in/hr0.0 mm/hr 0.19 in4.8 mm
07:10 AM 69.0°F20.6°C 66.9°F19.4°C 93% 1.9 mph SSE3.1 kmh SSE 3.0 mph4.8 kmh 29.56 in1001.0 mb 0.00 in0.0 mm 0.00 in/hr0.0 mm/hr 0.19 in4.8 mm
07:00 AM 69.0°F20.6°C 66.9°F19.4°C 93% 0.8 mph SW1.3 kmh SW 2.0 mph3.2 kmh 29.56 in1001.0 mb 0.00 in0.0 mm 0.00 in/hr0.0 mm/hr 0.19 in4.8 mm
06:50 AM 68.9°F20.5°C 66.8°F19.3°C 93% 2.2 mph SW3.5 kmh SW 4.0 mph6.4 kmh 29.56 in1001.0 mb 0.00 in0.0 mm 0.00 in/hr0.0 mm/hr 0.19 in4.8 mm
06:40 AM 68.7°F20.4°C 66.6°F19.2°C 93% 2.6 mph SSE4.2 kmh SSE 4.0 mph6.4 kmh 29.55 in1000.7 mb 0.00 in0.0 mm 0.00 in/hr0.0 mm/hr 0.19 in4.8 mm
06:30 AM 68.5°F20.3°C 66.7°F19.3°C 94% 3.0 mph SW4.8 kmh SW 6.0 mph9.7 kmh 29.55 in1000.7 mb 0.00 in0.0 mm 0.00 in/hr0.0 mm/hr 0.19 in4.8 mm
06:20 AM 68.5°F20.3°C 66.7°F19.3°C 94% 0.7 mph S1.1 kmh S 2.0 mph3.2 kmh 29.55 in1000.7 mb 0.00 in0.0 mm 0.00 in/hr0.0 mm/hr 0.19 in4.8 mm
06:10 AM 68.6°F20.3°C 66.5°F19.2°C 93% Calm Calm -- 29.55 in1000.7 mb 0.00 in0.0 mm 0.00 in/hr0.0 mm/hr 0.19 in4.8 mm
06:00 AM 68.7°F20.4°C 66.6°F19.2°C 93% Calm Calm -- 29.55 in1000.7 mb 0.00 in0.0 mm 0.00 in/hr0.0 mm/hr 0.19 in4.8 mm
05:50 AM 68.7°F20.4°C 66.3°F19.1°C 92% Calm Calm -- 29.54 in1000.3 mb 0.00 in0.0 mm 0.00 in/hr0.0 mm/hr 0.19 in4.8 mm
05:40 AM 69.0°F20.6°C 66.5°F19.2°C 92% 0.2 mph WSW0.3 kmh WSW 1.0 mph1.6 kmh 29.55 in1000.7 mb 0.00 in0.0 mm 0.00 in/hr0.0 mm/hr 0.19 in4.8 mm
05:30 AM 69.0°F20.6°C 66.6°F19.2°C 92% 0.7 mph SSW1.1 kmh SSW 3.0 mph4.8 kmh 29.55 in1000.7 mb 0.00 in0.0 mm 0.00 in/hr0.0 mm/hr 0.19 in4.8 mm
05:20 AM 69.0°F20.6°C 66.6°F19.2°C 92% 2.8 mph SW4.5 kmh SW 5.0 mph8.0 kmh 29.55 in1000.7 mb 0.00 in0.0 mm 0.00 in/hr0.0 mm/hr 0.19 in4.8 mm
05:10 AM 69.1°F20.6°C 66.7°F19.3°C 92% 2.5 mph SSW4.0 kmh SSW 4.0 mph6.4 kmh 29.55 in1000.7 mb 0.00 in0.0 mm 0.00 in/hr0.0 mm/hr 0.19 in4.8 mm
05:00 AM 69.5°F20.8°C 67.1°F19.5°C 92% 1.3 mph S2.1 kmh S 3.0 mph4.8 kmh 29.55 in1000.7 mb 0.00 in0.0 mm 0.00 in/hr0.0 mm/hr 0.19 in4.8 mm
04:50 AM 69.9°F21.1°C 66.8°F19.3°C 90% Calm Calm -- 29.54 in1000.3 mb 0.00 in0.0 mm 0.00 in/hr0.0 mm/hr 0.19 in4.8 mm
04:40 AM 70.2°F21.2°C 67.1°F19.5°C 90% 1.2 mph SW1.9 kmh SW 4.0 mph6.4 kmh 29.54 in1000.3 mb 0.00 in0.0 mm 0.00 in/hr0.0 mm/hr 0.19 in4.8 mm
04:30 AM 71.0°F21.7°C 68.2°F20.1°C 91% 1.0 mph SSE1.6 kmh SSE 1.0 mph1.6 kmh 29.56 in1001.0 mb 0.00 in0.0 mm 0.00 in/hr0.0 mm/hr 0.19 in4.8 mm
04:20 AM 71.7°F22.1°C 69.3°F20.7°C 92% 2.8 mph SW4.5 kmh SW 7.0 mph11.3 kmh 29.56 in1001.0 mb 0.00 in0.0 mm 0.00 in/hr0.0 mm/hr 0.19 in4.8 mm
04:10 AM 72.3°F22.4°C 70.5°F21.4°C 94% 4.3 mph S6.9 kmh S 5.0 mph8.0 kmh 29.56 in1001.0 mb 0.01 in0.3 mm 0.06 in/hr1.5 mm/hr 0.19 in4.8 mm
04:00 AM 72.9°F22.7°C 71.7°F22.1°C 96% 2.1 mph SW3.4 kmh SW 5.0 mph8.0 kmh 29.57 in1001.4 mb 0.00 in0.0 mm 0.00 in/hr0.0 mm/hr 0.18 in4.6 mm
03:50 AM 73.0°F22.8°C 71.8°F22.1°C 96% 0.2 mph S0.3 kmh S 2.0 mph3.2 kmh 29.57 in1001.4 mb 0.00 in0.0 mm 0.00 in/hr0.0 mm/hr 0.18 in4.6 mm
03:40 AM 73.1°F22.8°C 71.9°F22.2°C 96% 2.7 mph SW4.3 kmh SW 5.0 mph8.0 kmh 29.58 in1001.7 mb 0.00 in0.0 mm 0.00 in/hr0.0 mm/hr 0.18 in4.6 mm
03:30 AM 73.1°F22.8°C 71.9°F22.2°C 96% 2.0 mph SW3.2 kmh SW 3.0 mph4.8 kmh 29.57 in1001.4 mb 0.00 in0.0 mm 0.00 in/hr0.0 mm/hr 0.18 in4.6 mm
03:20 AM 73.2°F22.9°C 72.0°F22.2°C 96% 1.6 mph SE2.6 kmh SE 4.0 mph6.4 kmh 29.57 in1001.4 mb 0.00 in0.0 mm 0.00 in/hr0.0 mm/hr 0.18 in4.6 mm
03:10 AM 73.4°F23.0°C 71.9°F22.2°C 95% 1.1 mph SW1.8 kmh SW 2.0 mph3.2 kmh 29.57 in1001.4 mb 0.00 in0.0 mm 0.00 in/hr0.0 mm/hr 0.18 in4.6 mm
03:00 AM 73.6°F23.1°C 72.1°F22.3°C 95% Calm Calm -- 29.57 in1001.4 mb 0.00 in0.0 mm 0.00 in/hr0.0 mm/hr 0.18 in4.6 mm
02:50 AM 73.7°F23.2°C 72.2°F22.3°C 95% Calm Calm -- 29.56 in1001.0 mb 0.00 in0.0 mm 0.00 in/hr0.0 mm/hr 0.18 in4.6 mm
02:40 AM 73.9°F23.3°C 72.0°F22.2°C 94% Calm Calm -- 29.57 in1001.4 mb 0.00 in0.0 mm 0.00 in/hr0.0 mm/hr 0.18 in4.6 mm
02:30 AM 74.0°F23.3°C 72.2°F22.3°C 94% Calm Calm -- 29.58 in1001.7 mb 0.00 in0.0 mm 0.00 in/hr0.0 mm/hr 0.18 in4.6 mm
02:20 AM 74.1°F23.4°C 72.3°F22.4°C 94% Calm Calm -- 29.58 in1001.7 mb 0.00 in0.0 mm 0.00 in/hr0.0 mm/hr 0.18 in4.6 mm
02:10 AM 74.3°F23.5°C 72.1°F22.3°C 93% 0.9 mph SSE1.4 kmh SSE 1.0 mph1.6 kmh 29.60 in1002.4 mb 0.00 in0.0 mm 0.00 in/hr0.0 mm/hr 0.18 in4.6 mm
02:00 AM 74.5°F23.6°C 72.3°F22.4°C 93% 1.6 mph S2.6 kmh S 4.0 mph6.4 kmh 29.61 in1002.7 mb 0.00 in0.0 mm 0.00 in/hr0.0 mm/hr 0.18 in4.6 mm
01:50 AM 74.5°F23.6°C 72.3°F22.4°C 93% 2.4 mph W3.9 kmh W 4.0 mph6.4 kmh 29.62 in1003.0 mb 0.01 in0.3 mm 0.06 in/hr1.5 mm/hr 0.18 in4.6 mm
01:40 AM 74.4°F23.6°C 72.6°F22.6°C 94% 2.4 mph SSE3.9 kmh SSE 4.0 mph6.4 kmh 29.63 in1003.4 mb 0.07 in1.8 mm 0.42 in/hr10.7 mm/hr 0.17 in4.3 mm
01:30 AM 74.4°F23.6°C 72.2°F22.3°C 93% 5.9 mph SW9.5 kmh SW 6.0 mph9.7 kmh 29.63 in1003.4 mb 0.06 in1.5 mm 0.36 in/hr9.1 mm/hr 0.13 in3.3 mm
01:20 AM 74.4°F23.6°C 72.2°F22.3°C 93% 0.1 mph SW0.2 kmh SW 1.0 mph1.6 kmh 29.63 in1003.4 mb 0.02 in0.5 mm 0.12 in/hr3.0 mm/hr 0.06 in1.5 mm
01:10 AM 74.6°F23.7°C 72.4°F22.4°C 93% Calm Calm -- 29.64 in1003.7 mb 0.02 in0.5 mm 0.12 in/hr3.0 mm/hr 0.04 in1.0 mm
01:00 AM 75.2°F24.0°C 72.4°F22.4°C 91% 0.1 mph NE0.2 kmh NE -- 29.63 in1003.4 mb 0.01 in0.3 mm 0.01 in/hr0.3 mm/hr 0.03 in0.8 mm
12:50 AM 76.0°F24.4°C 72.5°F22.5°C 89% Calm Calm -- 29.64 in1003.7 mb 0.01 in0.3 mm 0.06 in/hr1.5 mm/hr 0.01 in0.3 mm
12:40 AM 76.6°F24.8°C 72.5°F22.5°C 87% Calm Calm -- 29.64 in1003.7 mb 0.00 in0.0 mm 0.00 in/hr0.0 mm/hr 0.00 in0.0 mm
12:30 AM 77.3°F25.2°C 72.4°F22.4°C 85% Calm Calm -- 29.64 in1003.7 mb 0.00 in0.0 mm 0.00 in/hr0.0 mm/hr 0.00 in0.0 mm
12:20 AM 77.8°F25.4°C 72.3°F22.4°C 83% Calm Calm -- 29.65 in1004.1 mb 0.00 in0.0 mm 0.00 in/hr0.0 mm/hr 0.00 in0.0 mm
12:10 AM 77.9°F25.5°C 72.0°F22.2°C 82% 0.2 mph SSE0.3 kmh SSE 2.0 mph3.2 kmh 29.65 in1004.1 mb 0.00 in0.0 mm 0.00 in/hr0.0 mm/hr 0.00 in0.0 mm
12:00 AM 78.0°F25.6°C 72.1°F22.3°C 82% 2.9 mph ESE4.7 kmh ESE 5.0 mph8.0 kmh 29.66 in1004.4 mb 0.00 in0.0 mm 0.00 in/hr0.0 mm/hr 0.00 in0.0 mm